Time;durP1;ratioP1;P1;durP2;ratioP2;P2;SDS_P1;SDS_P2;PMS_P1;PMS_P2;Temp;Humidity;BMP_temperature;BMP_pressure;BME280_temperature;BME280_humidity;BME280_pressure;Samples;Min_cycle;Max_cycle;Signal;HPM_P1;HPM_P2
2022/10/24 00:00:43;;;;;;;6.28;3.55;;;29.60;89.90;;;;;;5024587;28;20265;-53
2022/10/24 00:03:11;;;;;;;5.85;3.28;;;29.50;89.70;;;;;;5023969;28;20318;-50
2022/10/24 00:05:42;;;;;;;7.35;4.05;;;29.60;89.70;;;;;;5024524;28;20037;-54
2022/10/24 00:08:09;;;;;;;8.43;5.40;;;29.50;89.80;;;;;;5023683;28;20029;-53
2022/10/24 00:10:36;;;;;;;7.85;5.35;;;29.50;89.40;;;;;;5023556;28;20022;-51
2022/10/24 00:13:03;;;;;;;9.10;5.10;;;29.50;89.50;;;;;;5023549;28;20026;-52
2022/10/24 00:15:30;;;;;;;12.23;4.50;;;29.50;89.40;;;;;;5024236;28;20041;-53
2022/10/24 00:17:56;;;;;;;5.57;3.83;;;29.50;89.40;;;;;;5021588;28;20326;-51
2022/10/24 00:20:23;;;;;;;8.95;4.28;;;29.40;88.60;;;;;;5023841;28;20036;-50
2022/10/24 00:22:49;;;;;;;4.43;3.60;;;29.40;89.00;;;;;;5022847;28;20091;-57
2022/10/24 00:25:16;;;;;;;4.75;3.70;;;29.40;89.40;;;;;;5018068;28;20034;-52
2022/10/24 00:27:43;;;;;;;4.63;3.40;;;29.40;89.30;;;;;;5022667;28;20125;-54
2022/10/24 00:30:10;;;;;;;4.72;3.13;;;29.40;89.20;;;;;;5054748;28;20041;-56
2022/10/24 00:32:36;;;;;;;5.50;3.25;;;29.30;88.90;;;;;;5022847;28;20046;-49
2022/10/24 00:35:04;;;;;;;7.40;3.33;;;29.30;88.80;;;;;;5022710;28;20313;-51
2022/10/24 00:37:34;;;;;;;8.57;3.45;;;29.20;88.50;;;;;;5023648;28;20042;-54
2022/10/24 00:40:01;;;;;;;5.68;3.50;;;29.20;88.70;;;;;;5020087;28;20072;-51
2022/10/24 00:42:28;;;;;;;7.28;3.47;;;29.10;88.70;;;;;;5023363;28;20030;-55
2022/10/24 00:45:21;;;;;;;7.85;4.40;;;29.20;88.60;;;;;;5019043;28;20041;-55
2022/10/24 00:47:47;;;;;;;9.68;4.30;;;29.10;88.90;;;;;;5006536;28;20034;-52
2022/10/24 00:50:14;;;;;;;9.63;4.38;;;29.20;88.80;;;;;;5023999;28;20018;-54
2022/10/24 00:52:45;;;;;;;23.63;4.93;;;29.30;88.70;;;;;;5020149;28;20034;-54
2022/10/24 00:55:13;;;;;;;6.43;3.40;;;29.20;89.10;;;;;;5016339;28;20026;-51
2022/10/24 00:57:52;;;;;;;7.05;3.22;;;29.10;88.60;;;;;;5026053;28;20026;-52
2022/10/24 01:00:24;;;;;;;8.48;3.30;;;29.10;88.40;;;;;;5027134;28;20060;-50
2022/10/24 01:02:50;;;;;;;11.32;3.17;;;29.10;88.30;;;;;;5027637;28;20042;-56
2022/10/24 01:05:18;;;;;;;5.72;2.80;;;29.10;87.80;;;;;;5027299;28;20265;-53
2022/10/24 01:08:18;;;;;;;6.60;2.75;;;29.00;87.80;;;;;;5027354;28;20034;-54
2022/10/24 01:11:08;;;;;;;10.70;3.03;;;29.10;88.10;;;;;;5027204;28;20046;-50
2022/10/24 01:14:00;;;;;;;9.23;3.95;;;29.10;87.90;;;;;;5026928;28;20018;-53
2022/10/24 01:16:36;;;;;;;6.93;3.33;;;29.00;86.70;;;;;;5027464;28;20097;-49
2022/10/24 01:19:27;;;;;;;9.77;3.30;;;29.10;86.80;;;;;;5010498;28;20026;-52
2022/10/24 01:21:58;;;;;;;13.65;3.88;;;29.10;86.50;;;;;;5024611;28;20221;-56
2022/10/24 01:24:37;;;;;;;8.65;3.95;;;29.10;87.10;;;;;;5021067;28;20037;-53
2022/10/24 01:27:22;;;;;;;6.82;4.95;;;29.10;87.30;;;;;;5018861;28;20045;-51
2022/10/24 01:30:05;;;;;;;9.43;5.10;;;29.20;87.70;;;;;;5024073;28;20014;-49
2022/10/24 01:32:53;;;;;;;9.02;5.13;;;29.20;87.00;;;;;;5024119;28;20186;-55
2022/10/24 01:35:26;;;;;;;11.65;5.88;;;29.20;87.20;;;;;;5026602;28;20288;-53
2022/10/24 01:38:10;;;;;;;6.60;5.22;;;29.20;87.30;;;;;;5026670;28;20056;-54
2022/10/24 01:40:49;;;;;;;9.88;4.95;;;29.20;88.00;;;;;;5024617;28;20046;-56
2022/10/24 01:43:28;;;;;;;11.85;4.88;;;29.20;88.40;;;;;;5022332;28;20031;-52
2022/10/24 01:46:09;;;;;;;8.82;4.38;;;29.20;88.70;;;;;;5022350;28;20040;-56
2022/10/24 01:48:41;;;;;;;9.93;4.75;;;29.20;89.30;;;;;;5023335;28;20437;-54
2022/10/24 01:51:13;;;;;;;10.15;4.88;;;29.20;89.80;;;;;;5024440;28;20021;-52
2022/10/24 01:53:40;;;;;;;;;;;29.20;90.20;;;;;;5025573;28;20033;-52
2022/10/24 01:56:07;;;;;;;9.68;6.20;;;29.20;90.40;;;;;;5017953;28;19913;-53
2022/10/24 01:58:34;;;;;;;17.63;5.95;;;29.20;90.50;;;;;;5025844;28;20064;-55
2022/10/24 02:01:05;;;;;;;13.63;6.55;;;29.20;90.70;;;;;;5026508;28;20103;-57
2022/10/24 02:03:42;;;;;;;9.48;6.20;;;29.10;90.90;;;;;;5022539;28;20013;-58
2022/10/24 02:06:17;;;;;;;10.38;6.50;;;29.20;91.10;;;;;;5026689;28;20033;-58
2022/10/24 02:08:51;;;;;;;8.93;6.32;;;29.20;91.20;;;;;;5026202;28;20037;-54
2022/10/24 02:11:17;;;;;;;11.18;6.80;;;29.10;91.50;;;;;;5026177;28;20083;-56
2022/10/24 02:13:53;;;;;;;13.15;8.25;;;29.10;91.50;;;;;;5026017;28;20017;-53
2022/10/24 02:16:20;;;;;;;20.35;9.63;;;29.10;91.70;;;;;;5025954;28;20030;-54
2022/10/24 02:18:51;;;;;;;21.17;8.88;;;29.10;91.80;;;;;;5023221;28;20046;-50
2022/10/24 02:21:26;;;;;;;25.23;9.27;;;29.10;91.90;;;;;;5026257;28;20042;-53
2022/10/24 02:24:20;;;;;;;21.30;8.20;;;29.00;91.90;;;;;;5023094;28;20013;-52
2022/10/24 02:26:58;;;;;;;15.48;8.45;;;29.00;92.20;;;;;;5025697;28;20125;-51
2022/10/24 02:29:48;;;;;;;16.83;8.73;;;29.00;92.20;;;;;;5024929;28;20021;-49
2022/10/24 02:32:21;;;;;;;16.85;7.80;;;29.00;92.40;;;;;;5025942;28;20034;-52
2022/10/24 02:34:49;;;;;;;10.82;7.68;;;29.00;92.40;;;;;;5019523;28;20013;-51
2022/10/24 02:37:17;;;;;;;16.52;12.70;;;29.10;92.50;;;;;;5026054;28;20297;-53
2022/10/24 02:39:55;;;;;;;21.20;15.73;;;29.00;92.50;;;;;;5025128;28;20014;-54
2022/10/24 02:42:24;;;;;;;15.43;11.55;;;29.00;92.60;;;;;;5025732;28;20068;-55
2022/10/24 02:44:51;;;;;;;14.43;9.45;;;28.90;92.80;;;;;;5025295;28;20018;-55
2022/10/24 02:47:20;;;;;;;12.23;7.75;;;29.00;92.90;;;;;;5025638;28;20038;-54
2022/10/24 02:49:47;;;;;;;11.57;7.40;;;29.00;92.70;;;;;;5025375;28;20309;-54
2022/10/24 02:52:14;;;;;;;10.82;6.80;;;28.90;92.60;;;;;;5019779;28;20030;-54
2022/10/24 02:54:43;;;;;;;13.35;7.07;;;28.90;92.50;;;;;;5013475;28;20038;-52
2022/10/24 02:57:12;;;;;;;8.32;6.43;;;28.90;92.50;;;;;;5022998;28;20034;-51
2022/10/24 02:59:39;;;;;;;11.48;6.50;;;29.00;92.40;;;;;;5023508;28;20214;-53
2022/10/24 03:02:05;;;;;;;11.80;6.45;;;28.90;92.40;;;;;;5021701;28;20030;-54
2022/10/24 03:04:32;;;;;;;9.88;6.40;;;28.90;92.40;;;;;;5023428;28;20038;-53
2022/10/24 03:06:58;;;;;;;12.07;5.80;;;28.90;92.30;;;;;;5025666;28;20071;-48
2022/10/24 03:09:25;;;;;;;9.13;5.25;;;28.80;92.20;;;;;;5023648;28;20055;-48
2022/10/24 03:11:52;;;;;;;9.63;4.97;;;28.80;92.20;;;;;;5019650;28;20033;-52
2022/10/24 03:14:18;;;;;;;7.32;5.00;;;28.70;92.20;;;;;;5022043;28;20021;-57
2022/10/24 03:16:45;;;;;;;7.28;4.40;;;28.80;92.10;;;;;;5018406;28;20056;-55
2022/10/24 03:19:11;;;;;;;5.88;4.35;;;28.80;91.90;;;;;;5024686;28;20471;-55
2022/10/24 03:21:39;;;;;;;8.73;4.38;;;28.90;91.80;;;;;;5034756;28;20022;-56
2022/10/24 03:24:05;;;;;;;6.45;4.35;;;28.90;91.70;;;;;;5022212;28;20213;-54
2022/10/24 03:26:32;;;;;;;6.63;4.03;;;28.90;91.50;;;;;;5024635;28;20334;-57
2022/10/24 03:28:59;;;;;;;6.43;4.22;;;28.90;91.40;;;;;;5024434;28;20083;-57
2022/10/24 03:31:26;;;;;;;9.02;4.28;;;28.90;91.40;;;;;;5024890;28;20026;-59
2022/10/24 03:33:53;;;;;;;7.18;4.05;;;28.90;91.30;;;;;;5024463;28;20104;-57
2022/10/24 03:36:20;;;;;;;4.95;3.80;;;28.90;91.10;;;;;;5024609;28;20042;-57
2022/10/24 03:38:46;;;;;;;7.10;3.90;;;28.90;91.20;;;;;;5023367;28;20030;-56
2022/10/24 03:41:13;;;;;;;6.55;3.92;;;28.90;90.90;;;;;;5024636;28;20113;-56
2022/10/24 03:43:39;;;;;;;6.95;3.40;;;28.90;90.70;;;;;;5022776;28;20030;-56
2022/10/24 03:46:06;;;;;;;4.93;3.17;;;28.90;90.50;;;;;;5018368;28;20038;-55
2022/10/24 03:48:32;;;;;;;5.30;3.08;;;28.90;90.30;;;;;;5023021;28;20091;-56
2022/10/24 03:50:59;;;;;;;8.57;3.30;;;28.90;90.10;;;;;;5006922;28;20030;-54
2022/10/24 03:53:26;;;;;;;4.20;3.08;;;28.90;90.00;;;;;;5023691;28;20037;-56
2022/10/24 03:55:52;;;;;;;6.43;3.17;;;28.90;89.20;;;;;;5024272;28;20021;-55
2022/10/24 03:58:19;;;;;;;4.75;3.15;;;28.90;89.00;;;;;;5024081;28;20038;-56
2022/10/24 04:00:45;;;;;;;6.40;3.20;;;28.90;89.30;;;;;;5024364;28;20032;-51
2022/10/24 04:03:12;;;;;;;4.53;2.97;;;28.90;89.50;;;;;;5023996;28;20195;-58
2022/10/24 04:05:39;;;;;;;5.82;3.30;;;28.90;89.60;;;;;;5024311;28;20058;-58
2022/10/24 04:08:06;;;;;;;4.13;3.13;;;28.90;89.20;;;;;;5023102;28;20041;-58
2022/10/24 04:10:33;;;;;;;3.67;2.90;;;28.80;89.00;;;;;;5019413;28;20097;-56
2022/10/24 04:12:59;;;;;;;6.10;2.90;;;28.80;88.90;;;;;;5021454;28;20037;-57
2022/10/24 04:15:26;;;;;;;5.57;3.10;;;28.80;88.70;;;;;;5023898;28;20183;-55
2022/10/24 04:17:52;;;;;;;5.65;2.78;;;28.80;88.60;;;;;;5023894;28;20038;-58
2022/10/24 04:20:21;;;;;;;4.22;3.03;;;28.80;88.50;;;;;;5024097;28;20068;-60
2022/10/24 04:22:48;;;;;;;4.95;2.92;;;28.90;88.80;;;;;;5030684;28;20040;-57
2022/10/24 04:25:15;;;;;;;6.55;3.53;;;28.80;89.00;;;;;;5030466;28;20033;-56
2022/10/24 04:27:42;;;;;;;4.70;3.53;;;28.80;89.00;;;;;;5030259;28;20088;-56
2022/10/24 04:30:11;;;;;;;7.90;3.72;;;28.80;89.10;;;;;;5029173;28;20097;-56
2022/10/24 04:32:38;;;;;;;5.32;3.53;;;28.80;89.30;;;;;;5029303;28;20049;-58
2022/10/24 04:35:05;;;;;;;7.32;4.20;;;28.80;89.60;;;;;;5029802;28;20040;-60
2022/10/24 04:37:32;;;;;;;6.07;3.60;;;28.80;89.70;;;;;;5030146;28;20068;-54
2022/10/24 04:39:59;;;;;;;5.68;3.83;;;28.80;89.60;;;;;;5029643;28;20022;-58
2022/10/24 04:42:25;;;;;;;7.60;3.70;;;28.80;89.60;;;;;;5030085;28;20038;-59
2022/10/24 04:44:52;;;;;;;6.30;3.90;;;28.80;89.50;;;;;;5029591;28;20068;-55
2022/10/24 04:47:18;;;;;;;6.22;4.35;;;28.80;89.60;;;;;;5029071;28;20045;-55
2022/10/24 04:49:45;;;;;;;5.05;3.97;;;28.80;89.50;;;;;;5029582;28;20326;-59
2022/10/24 04:52:12;;;;;;;7.20;4.05;;;28.80;89.60;;;;;;5029950;28;20317;-56
2022/10/24 04:54:38;;;;;;;4.93;4.43;;;28.80;90.00;;;;;;5029379;28;20195;-60
2022/10/24 04:57:05;;;;;;;8.57;4.53;;;28.80;90.10;;;;;;5029912;28;20030;-59
2022/10/24 04:59:31;;;;;;;10.15;4.50;;;28.80;90.30;;;;;;5029605;28;20033;-58
2022/10/24 05:01:58;;;;;;;5.60;4.32;;;28.80;90.40;;;;;;5029696;28;20306;-59
2022/10/24 05:04:24;;;;;;;6.93;4.65;;;28.70;90.50;;;;;;5029588;28;20225;-59
2022/10/24 05:06:52;;;;;;;5.35;4.80;;;28.80;90.60;;;;;;5029647;28;20314;-56
2022/10/24 05:09:20;;;;;;;6.65;5.25;;;28.70;90.60;;;;;;5029295;28;20119;-61
2022/10/24 05:11:46;;;;;;;5.82;4.63;;;28.70;90.70;;;;;;5029328;28;20093;-54
2022/10/24 05:14:13;;;;;;;5.63;4.70;;;28.70;90.70;;;;;;5030003;28;20037;-56
2022/10/24 05:16:39;;;;;;;4.85;4.32;;;28.70;90.90;;;;;;5030314;28;20310;-59
2022/10/24 05:19:06;;;;;;;6.20;4.00;;;28.70;90.80;;;;;;5030042;28;20131;-56
2022/10/24 05:21:33;;;;;;;5.80;4.20;;;28.70;90.70;;;;;;5030229;28;20314;-56
2022/10/24 05:24:00;;;;;;;5.65;4.35;;;28.70;90.60;;;;;;5030013;28;20037;-58
2022/10/24 05:26:27;;;;;;;6.20;3.90;;;28.70;90.50;;;;;;5029839;28;20129;-55
2022/10/24 05:28:53;;;;;;;5.95;4.13;;;28.70;90.50;;;;;;5029866;28;20086;-59
2022/10/24 05:31:20;;;;;;;4.20;3.80;;;28.70;90.50;;;;;;5030127;28;20041;-57
2022/10/24 05:33:47;;;;;;;6.45;3.95;;;28.70;90.40;;;;;;5026369;28;20045;-56
2022/10/24 05:36:13;;;;;;;5.53;4.20;;;28.70;90.30;;;;;;5026873;28;20093;-51
2022/10/24 05:38:40;;;;;;;7.38;3.90;;;28.60;90.40;;;;;;5025877;28;20109;-54
2022/10/24 05:41:06;;;;;;;6.55;3.88;;;28.60;90.50;;;;;;5026740;28;20033;-56
2022/10/24 05:43:33;;;;;;;7.47;4.05;;;28.60;90.60;;;;;;5026700;28;20049;-53
2022/10/24 05:45:59;;;;;;;8.77;4.07;;;28.60;90.80;;;;;;5026808;28;20025;-58
2022/10/24 05:48:26;;;;;;;6.70;4.20;;;28.60;90.90;;;;;;5026389;28;20036;-58
2022/10/24 05:50:57;;;;;;;7.35;4.15;;;28.60;90.90;;;;;;5026527;28;20029;-61
2022/10/24 05:53:25;;;;;;;13.38;6.35;;;28.60;91.10;;;;;;5026605;28;20214;-56
2022/10/24 05:55:51;;;;;;;14.60;8.57;;;28.60;91.40;;;;;;5026154;28;20037;-55
2022/10/24 05:58:20;;;;;;;18.58;8.00;;;28.50;92.00;;;;;;5026342;28;20018;-58
2022/10/24 06:00:48;;;;;;;16.60;9.20;;;28.50;92.20;;;;;;5026392;28;20037;-55
2022/10/24 06:03:14;;;;;;;16.33;8.25;;;28.50;92.40;;;;;;5026131;28;20025;-55
2022/10/24 06:05:41;;;;;;;17.70;9.23;;;28.50;92.70;;;;;;5026276;28;20038;-56
2022/10/24 06:08:08;;;;;;;19.60;9.15;;;28.40;92.80;;;;;;5026248;28;20030;-56
2022/10/24 06:10:35;;;;;;;14.68;8.07;;;28.40;92.90;;;;;;5026005;28;20014;-53
2022/10/24 06:13:01;;;;;;;14.65;8.63;;;28.40;93.00;;;;;;5026274;28;20036;-55
2022/10/24 06:15:28;;;;;;;13.40;7.95;;;28.40;93.00;;;;;;5026063;28;20030;-55
2022/10/24 06:17:55;;;;;;;13.30;7.78;;;28.40;92.90;;;;;;5025923;28;20222;-55
2022/10/24 06:20:21;;;;;;;10.98;7.13;;;28.40;93.10;;;;;;5025899;28;20251;-55
2022/10/24 06:22:48;;;;;;;11.82;7.40;;;28.30;93.00;;;;;;5026119;28;20076;-55
2022/10/24 06:25:16;;;;;;;12.65;7.57;;;28.30;93.00;;;;;;5025697;28;20041;-57
2022/10/24 06:27:43;;;;;;;12.48;7.82;;;28.30;93.10;;;;;;5025810;28;20049;-56
2022/10/24 06:30:10;;;;;;;11.63;7.43;;;28.30;93.30;;;;;;5025840;28;20084;-56
2022/10/24 06:32:38;;;;;;;13.32;7.00;;;28.30;93.20;;;;;;5026103;28;20074;-55
2022/10/24 06:35:05;;;;;;;9.20;6.22;;;28.30;93.10;;;;;;5025720;28;20041;-57
2022/10/24 06:37:32;;;;;;;9.52;5.68;;;28.30;93.10;;;;;;5026176;28;20076;-56
2022/10/24 06:39:59;;;;;;;8.57;5.50;;;28.30;92.90;;;;;;5025546;28;20029;-54
2022/10/24 06:42:25;;;;;;;10.27;5.38;;;28.20;92.90;;;;;;5026241;28;20034;-54
2022/10/24 06:44:52;;;;;;;9.70;5.15;;;28.20;92.80;;;;;;5024495;28;20041;-54
2022/10/24 06:47:18;;;;;;;9.80;5.50;;;28.20;92.80;;;;;;5025762;28;20132;-54
2022/10/24 06:49:45;;;;;;;7.75;5.10;;;28.20;92.90;;;;;;5025690;28;20056;-58
2022/10/24 06:52:11;;;;;;;6.50;4.88;;;28.20;92.90;;;;;;5025908;28;20306;-60
2022/10/24 06:54:39;;;;;;;7.50;4.35;;;28.20;92.90;;;;;;5025278;28;20093;-60
2022/10/24 06:57:07;;;;;;;8.20;4.80;;;28.10;92.80;;;;;;5025203;28;20034;-53
2022/10/24 06:59:33;;;;;;;5.63;4.53;;;28.10;92.80;;;;;;5025282;28;20040;-57
2022/10/24 07:02:00;;;;;;;7.80;4.30;;;28.10;92.80;;;;;;5025449;28;20034;-57
2022/10/24 07:04:26;;;;;;;6.28;4.57;;;28.10;92.80;;;;;;5025308;28;20038;-55
2022/10/24 07:06:53;;;;;;;4.53;4.10;;;28.10;92.80;;;;;;5024657;28;20028;-57
2022/10/24 07:09:19;;;;;;;4.70;3.88;;;28.00;92.70;;;;;;5025154;28;20097;-54
2022/10/24 07:11:46;;;;;;;5.80;3.85;;;28.00;92.70;;;;;;5025375;28;20040;-58
2022/10/24 07:14:12;;;;;;;5.97;3.80;;;28.00;92.70;;;;;;5024998;28;20080;-55
2022/10/24 07:16:40;;;;;;;5.60;3.75;;;28.00;92.70;;;;;;5024777;28;20073;-55
2022/10/24 07:19:07;;;;;;;6.82;3.60;;;28.00;92.80;;;;;;5024884;28;20330;-57
2022/10/24 07:21:33;;;;;;;5.13;3.15;;;28.00;92.80;;;;;;5025062;28;20062;-57
2022/10/24 07:24:00;;;;;;;5.97;3.70;;;27.90;92.80;;;;;;5024946;28;20028;-61
2022/10/24 07:26:28;;;;;;;5.32;3.38;;;27.90;92.80;;;;;;5024686;28;20072;-56
2022/10/24 07:28:57;;;;;;;4.35;3.42;;;28.00;92.90;;;;;;5024635;28;20021;-55
2022/10/24 07:31:27;;;;;;;5.65;3.60;;;27.90;92.80;;;;;;5024757;28;20036;-56
2022/10/24 07:33:54;;;;;;;5.25;3.20;;;27.90;92.70;;;;;;5024796;28;20018;-55
2022/10/24 07:36:25;;;;;;;6.15;3.13;;;27.90;92.80;;;;;;5024799;28;20364;-55
2022/10/24 07:38:55;;;;;;;3.13;2.47;;;27.90;92.70;;;;;;5024473;28;20103;-55
2022/10/24 07:41:26;;;;;;;5.05;2.40;;;27.90;92.60;;;;;;5024383;28;20026;-55
2022/10/24 07:43:53;;;;;;;6.20;3.20;;;27.90;92.40;;;;;;5024588;28;20040;-55
2022/10/24 07:46:21;;;;;;;5.75;2.67;;;27.90;92.30;;;;;;5024573;28;20065;-54
2022/10/24 07:48:51;;;;;;;7.45;2.55;;;27.80;92.00;;;;;;5024244;28;20030;-60
2022/10/24 07:51:18;;;;;;;5.38;2.50;;;27.80;91.60;;;;;;5024433;28;20038;-60
2022/10/24 07:53:45;;;;;;;6.03;2.17;;;27.70;91.70;;;;;;5024250;28;20072;-60
2022/10/24 07:56:14;;;;;;;4.55;2.15;;;27.70;91.70;;;;;;5024160;28;20251;-61
2022/10/24 07:58:42;;;;;;;4.43;1.98;;;27.70;91.80;;;;;;5024254;28;20025;-52
2022/10/24 08:01:13;;;;;;;3.60;1.73;;;27.60;91.70;;;;;;5024183;28;20034;-58
2022/10/24 08:03:40;;;;;;;5.03;1.60;;;27.60;91.70;;;;;;5024072;28;20028;-55
2022/10/24 08:06:08;;;;;;;3.67;1.50;;;27.60;91.60;;;;;;5024297;28;20109;-54
2022/10/24 08:08:35;;;;;;;7.03;1.70;;;27.60;91.60;;;;;;5022426;28;20042;-58
2022/10/24 08:11:07;;;;;;;2.22;1.50;;;27.60;91.60;;;;;;5018684;28;20018;-54
2022/10/24 08:13:43;;;;;;;3.38;1.52;;;27.60;91.70;;;;;;5026157;28;20314;-57
2022/10/24 08:16:13;;;;;;;6.20;1.50;;;27.60;91.70;;;;;;5023140;28;20026;-56
2022/10/24 08:18:40;;;;;;;4.80;1.38;;;27.60;91.70;;;;;;5024066;28;20104;-56
2022/10/24 08:21:09;;;;;;;4.60;1.42;;;27.60;91.80;;;;;;5024081;28;20029;-56
2022/10/24 08:23:39;;;;;;;3.40;1.27;;;27.50;91.80;;;;;;5024056;28;20210;-56
2022/10/24 08:26:07;;;;;;;4.40;1.30;;;27.50;91.90;;;;;;5023915;28;20048;-58
2022/10/24 08:28:35;;;;;;;2.53;1.23;;;27.50;92.00;;;;;;5023918;28;20110;-60
2022/10/24 08:31:04;;;;;;;4.95;1.35;;;27.50;92.20;;;;;;5022803;28;20273;-59
2022/10/24 08:33:31;;;;;;;3.28;1.20;;;27.50;92.20;;;;;;5023801;28;20037;-61
2022/10/24 08:36:01;;;;;;;3.45;1.33;;;27.50;92.10;;;;;;5024190;28;20306;-55
2022/10/24 08:38:28;;;;;;;3.83;1.17;;;27.50;92.20;;;;;;5023882;28;20080;-57
2022/10/24 08:40:56;;;;;;;1.75;0.90;;;27.40;92.20;;;;;;5023653;28;20052;-57
2022/10/24 08:43:24;;;;;;;5.38;1.00;;;27.40;92.40;;;;;;5023796;28;20025;-54
2022/10/24 08:46:12;;;;;;;4.53;1.55;;;27.40;92.40;;;;;;5023910;28;20047;-53
2022/10/24 08:48:51;;;;;;;4.82;1.75;;;27.40;92.40;;;;;;5023742;28;20030;-53
2022/10/24 08:51:42;;;;;;;2.22;1.30;;;27.40;92.40;;;;;;5023941;28;20014;-58
2022/10/24 08:54:19;;;;;;;3.95;1.35;;;27.40;92.50;;;;;;5023704;28;20334;-61
2022/10/24 08:56:47;;;;;;;3.28;1.42;;;27.40;92.50;;;;;;5023922;28;20045;-59
2022/10/24 08:59:13;;;;;;;4.53;1.35;;;27.40;92.50;;;;;;5023720;28;20038;-56
2022/10/24 09:02:11;;;;;;;2.72;1.40;;;27.40;92.50;;;;;;5023915;28;20302;-55
2022/10/24 09:04:55;;;;;;;2.85;1.27;;;27.40;92.60;;;;;;5023645;28;20026;-61
2022/10/24 09:07:22;;;;;;;2.65;1.40;;;27.40;92.50;;;;;;5023934;28;20038;-63
2022/10/24 09:09:56;;;;;;;3.10;1.50;;;27.30;92.60;;;;;;5059297;28;20045;-59
2022/10/24 09:12:25;;;;;;;5.88;1.40;;;27.30;92.60;;;;;;5027757;28;20328;-60
2022/10/24 09:14:58;;;;;;;2.75;1.27;;;27.40;92.70;;;;;;5027155;28;20319;-60
2022/10/24 09:17:35;;;;;;;3.20;1.23;;;27.30;92.70;;;;;;5027616;28;20025;-59
2022/10/24 09:20:24;;;;;;;3.28;1.58;;;27.30;92.80;;;;;;5026997;28;20026;-55
2022/10/24 09:22:56;;;;;;;3.08;1.50;;;27.30;92.80;;;;;;5027199;28;20311;-57
2022/10/24 09:25:28;;;;;;;5.18;1.75;;;27.30;93.00;;;;;;5026899;28;20042;-58
2022/10/24 09:27:57;;;;;;;6.00;1.73;;;27.30;92.90;;;;;;5026748;28;20053;-57
2022/10/24 09:30:26;;;;;;;4.78;1.50;;;27.40;93.00;;;;;;5026711;28;20088;-56
2022/10/24 09:32:56;;;;;;;2.03;1.30;;;27.30;92.90;;;;;;5027128;28;20026;-54
2022/10/24 09:35:29;;;;;;;3.47;1.27;;;27.30;92.80;;;;;;5026760;28;20030;-53
2022/10/24 09:38:33;;;;;;;4.15;1.85;;;27.30;92.70;;;;;;5026698;28;20037;-61
2022/10/24 09:41:21;;;;;;;3.95;1.65;;;27.30;92.80;;;;;;5026735;28;20065;-60
2022/10/24 09:43:55;;;;;;;6.15;1.70;;;27.30;92.80;;;;;;5026367;28;20279;-54
2022/10/24 09:46:44;;;;;;;2.15;1.52;;;27.30;92.80;;;;;;5026653;28;20033;-56
2022/10/24 09:49:22;;;;;;;3.80;1.80;;;27.30;92.80;;;;;;5026550;28;20037;-58
2022/10/24 09:52:06;;;;;;;4.55;1.50;;;27.30;92.80;;;;;;5026968;28;20068;-60
2022/10/24 09:54:35;;;;;;;4.57;1.40;;;27.30;92.80;;;;;;5026422;28;20034;-56
2022/10/24 09:57:05;;;;;;;6.95;1.52;;;27.30;92.80;;;;;;5026839;28;20088;-57
2022/10/24 09:59:33;;;;;;;3.70;1.75;;;27.30;92.70;;;;;;5026441;28;20037;-55
2022/10/24 10:02:24;;;;;;;2.95;1.65;;;27.30;92.80;;;;;;5026543;28;20069;-55
2022/10/24 10:05:03;;;;;;;3.05;1.80;;;27.20;92.80;;;;;;5026275;28;20030;-55
2022/10/24 10:07:41;;;;;;;4.68;1.67;;;27.20;92.90;;;;;;5026599;28;20103;-55
2022/10/24 10:10:28;;;;;;;6.47;1.85;;;27.20;92.90;;;;;;5026282;28;20036;-54
2022/10/24 10:13:24;;;;;;;3.08;1.83;;;27.20;92.90;;;;;;5026188;28;20026;-59
2022/10/24 10:16:03;;;;;;;3.67;2.25;;;27.20;92.90;;;;;;5026035;28;20034;-57
2022/10/24 10:18:37;;;;;;;5.10;2.50;;;27.20;92.90;;;;;;5025697;28;20064;-57
2022/10/24 10:21:09;;;;;;;3.92;2.70;;;27.20;93.00;;;;;;5025608;28;20052;-60
2022/10/24 10:23:37;;;;;;;;;;;27.20;93.10;;;;;;5026377;28;20033;-58
2022/10/24 10:26:26;;;;;;;4.95;2.38;;;27.20;93.10;;;;;;5026082;28;19988;-58
2022/10/24 10:29:03;;;;;;;4.65;2.30;;;27.10;93.10;;;;;;5025864;28;20034;-61
2022/10/24 10:32:10;;;;;;;5.30;2.50;;;27.10;93.10;;;;;;5025873;28;20029;-60
2022/10/24 10:34:45;;;;;;;9.02;2.40;;;27.10;93.10;;;;;;5020295;28;20038;-60
2022/10/24 10:37:38;;;;;;;7.47;2.60;;;27.10;93.10;;;;;;5026004;28;20037;-60
2022/10/24 10:40:37;;;;;;;6.07;3.00;;;27.10;93.20;;;;;;5025562;28;20306;-61
2022/10/24 10:43:45;;;;;;;5.65;2.25;;;27.00;93.10;;;;;;4989586;28;20066;-55
2022/10/24 10:46:35;;;;;;;5.18;2.30;;;27.10;93.20;;;;;;5003235;28;20041;-56
2022/10/24 10:49:27;;;;;;;7.07;2.20;;;27.10;93.20;;;;;;5025126;28;20342;-55
2022/10/24 10:52:21;;;;;;;6.03;2.50;;;27.10;93.20;;;;;;5011560;28;20026;-62
2022/10/24 10:55:26;;;;;;;3.60;2.35;;;27.10;93.20;;;;;;5025186;28;20027;-59
2022/10/24 10:58:27;;;;;;;5.97;2.17;;;27.00;93.20;;;;;;5012337;28;20080;-55
2022/10/24 11:01:12;;;;;;;5.72;3.10;;;27.10;93.20;;;;;;5014327;28;20222;-54
2022/10/24 11:04:04;;;;;;;6.18;2.72;;;27.00;93.20;;;;;;5025309;28;20021;-56
2022/10/24 11:06:42;;;;;;;6.10;3.28;;;27.00;93.10;;;;;;5024434;28;20026;-57
2022/10/24 11:09:36;;;;;;;11.38;4.72;;;27.00;93.10;;;;;;5022874;28;20036;-55
2022/10/24 11:12:09;;;;;;;8.15;3.88;;;27.00;93.20;;;;;;5016488;28;20057;-54
2022/10/24 11:14:50;;;;;;;7.38;3.08;;;27.00;93.10;;;;;;5016843;28;20025;-56
2022/10/24 11:17:24;;;;;;;19.65;3.95;;;27.00;93.20;;;;;;5025337;28;20045;-54
2022/10/24 11:19:59;;;;;;;8.65;3.28;;;27.00;93.20;;;;;;5024760;28;20072;-52
2022/10/24 11:22:36;;;;;;;15.15;4.50;;;27.00;93.30;;;;;;5025244;28;20033;-53
2022/10/24 11:25:34;;;;;;;10.45;4.00;;;26.90;93.50;;;;;;5023885;28;20025;-55
2022/10/24 11:28:08;;;;;;;13.50;4.95;;;26.90;93.60;;;;;;5004238;28;20360;-56
2022/10/24 11:30:58;;;;;;;7.57;3.88;;;26.90;93.40;;;;;;5023762;28;20030;-61
2022/10/24 11:33:34;;;;;;;7.07;3.60;;;27.00;93.30;;;;;;5016061;28;20042;-57
2022/10/24 11:36:13;;;;;;;7.82;3.72;;;26.90;93.30;;;;;;5024637;28;20036;-54
2022/10/24 11:39:17;;;;;;;5.57;3.08;;;27.00;93.30;;;;;;5022872;28;20091;-56
2022/10/24 11:42:03;;;;;;;6.05;3.63;;;26.90;93.20;;;;;;4979243;28;20049;-55
2022/10/24 11:44:54;;;;;;;7.95;3.50;;;27.00;93.30;;;;;;5023058;28;20226;-58
2022/10/24 11:47:23;;;;;;;8.20;3.10;;;27.00;93.30;;;;;;5022960;28;20026;-58
2022/10/24 11:50:23;;;;;;;4.32;3.00;;;27.00;93.30;;;;;;5023223;28;20044;-60
2022/10/24 11:52:54;;;;;;;5.57;3.00;;;27.00;93.30;;;;;;5023583;28;20034;-57
2022/10/24 11:55:24;;;;;;;6.10;2.60;;;27.00;93.40;;;;;;5024386;28;20040;-55
2022/10/24 11:57:56;;;;;;;4.80;2.67;;;27.00;93.50;;;;;;5024265;28;20030;-62
2022/10/24 12:00:41;;;;;;;7.55;3.15;;;27.00;93.50;;;;;;5023020;28;20041;-56
2022/10/24 12:03:32;;;;;;;6.15;3.20;;;27.00;93.60;;;;;;5024115;28;20310;-63
2022/10/24 12:06:25;;;;;;;6.05;3.30;;;27.00;93.90;;;;;;5024325;28;20101;-59
2022/10/24 12:09:35;;;;;;;6.70;3.03;;;27.10;93.80;;;;;;5024157;28;20087;-58
2022/10/24 12:12:14;;;;;;;8.07;2.92;;;27.10;93.80;;;;;;4996547;28;20112;-55
2022/10/24 12:14:53;;;;;;;4.93;3.47;;;27.10;93.90;;;;;;5023879;28;20088;-57
2022/10/24 12:17:47;;;;;;;6.78;3.33;;;27.10;94.00;;;;;;5024535;28;20037;-56
2022/10/24 12:20:20;;;;;;;8.77;3.35;;;27.10;93.90;;;;;;5024176;28;20080;-56
2022/10/24 12:22:48;;;;;;;7.47;3.67;;;27.10;94.00;;;;;;5024321;28;20037;-53
2022/10/24 12:25:37;;;;;;;9.43;3.90;;;27.10;94.00;;;;;;5024154;28;20018;-60
2022/10/24 12:28:25;;;;;;;6.47;3.70;;;27.10;94.00;;;;;;5023830;28;20241;-58
2022/10/24 12:31:13;;;;;;;6.10;3.70;;;27.10;94.10;;;;;;5024270;28;20258;-61
2022/10/24 12:33:41;;;;;;;4.85;3.30;;;27.20;94.20;;;;;;5023828;28;20033;-63
2022/10/24 12:36:08;;;;;;;4.40;3.28;;;27.20;94.10;;;;;;5024026;28;20081;-63
2022/10/24 12:38:36;;;;;;;7.18;4.13;;;27.20;94.10;;;;;;5023841;28;20042;-63
2022/10/24 12:41:24;;;;;;;8.05;4.22;;;27.20;94.00;;;;;;5023687;28;20026;-56
2022/10/24 12:44:11;;;;;;;5.78;3.92;;;27.20;94.00;;;;;;5027825;28;20037;-55
2022/10/24 12:46:37;;;;;;;4.18;3.40;;;27.30;93.90;;;;;;5028004;28;20034;-55
2022/10/24 12:49:15;;;;;;;7.10;4.03;;;27.30;93.90;;;;;;5027704;28;20033;-56
2022/10/24 12:51:42;;;;;;;5.78;3.60;;;27.30;94.00;;;;;;5027612;28;20041;-55
2022/10/24 12:54:16;;;;;;;5.00;3.60;;;27.30;94.00;;;;;;5027680;28;20056;-57
2022/10/24 12:56:49;;;;;;;5.28;3.75;;;27.30;94.00;;;;;;5027730;28;20385;-54
2022/10/24 12:59:25;;;;;;;7.50;4.15;;;27.30;93.90;;;;;;5027684;28;20030;-54
2022/10/24 13:02:14;;;;;;;6.10;3.75;;;27.30;93.90;;;;;;5027746;28;20094;-57
2022/10/24 13:05:15;;;;;;;6.03;3.55;;;27.30;93.80;;;;;;5027493;28;20233;-58
2022/10/24 13:07:53;;;;;;;4.88;3.63;;;27.30;93.80;;;;;;5027946;28;20029;-55
2022/10/24 13:10:43;;;;;;;6.28;3.33;;;27.30;93.70;;;;;;5027289;28;20325;-56
2022/10/24 13:13:12;;;;;;;10.52;3.70;;;27.30;93.70;;;;;;5027334;28;20390;-55
2022/10/24 13:19:23;;;;;;;6.37;3.50;;;27.30;93.70;;;;;;5027240;28;20024;-58